createdAt,value
2019-04-30T00:00:46.093Z,6.35
2019-04-30T00:03:24.923Z,6.34
2019-04-30T00:05:57.358Z,6.25
2019-04-30T00:08:30.234Z,6.25
2019-04-30T00:10:57.761Z,6.24
2019-04-30T00:13:27.898Z,6.18
2019-04-30T00:16:01.404Z,6.17
2019-04-30T00:18:30.871Z,6.17
2019-04-30T00:21:00.514Z,6.18
2019-04-30T00:23:30.921Z,6.18
2019-04-30T00:26:06.282Z,6.21
2019-04-30T00:28:32.136Z,6.20
2019-04-30T00:31:01.823Z,6.20
2019-04-30T00:33:31.670Z,6.21
2019-04-30T00:36:01.386Z,6.19
2019-04-30T00:38:34.273Z,6.18
2019-04-30T00:41:06.790Z,6.13
2019-04-30T00:43:35.363Z,6.11
2019-04-30T00:46:05.831Z,6.07
2019-04-30T00:48:35.762Z,6.05
2019-04-30T00:51:07.557Z,6.04
2019-04-30T00:53:36.770Z,6.03
2019-04-30T00:56:06.524Z,6.02
2019-04-30T00:58:36.207Z,5.96
2019-04-30T01:01:43.475Z,5.93
2019-04-30T01:04:19.541Z,5.90
2019-04-30T01:06:50.125Z,5.84
2019-04-30T01:09:19.791Z,5.81
2019-04-30T01:11:49.532Z,5.79
2019-04-30T01:14:23.215Z,5.78
2019-04-30T01:16:50.608Z,5.76
2019-04-30T01:19:29.159Z,5.75
2019-04-30T01:21:53.015Z,5.75
2019-04-30T01:24:23.536Z,5.75
2019-04-30T01:26:54.547Z,5.75
2019-04-30T01:29:24.370Z,5.70
2019-04-30T01:31:54.068Z,5.70
2019-04-30T01:34:23.834Z,5.72
2019-04-30T01:36:53.481Z,5.73
2019-04-30T01:39:23.791Z,5.72
2019-04-30T01:41:54.792Z,5.72
2019-04-30T01:44:24.609Z,5.69
2019-04-30T01:46:54.278Z,5.65
2019-04-30T01:49:25.733Z,5.62
2019-04-30T01:51:57.320Z,5.64
2019-04-30T01:54:26.660Z,5.64
2019-04-30T01:57:20.299Z,5.61
2019-04-30T02:00:09.658Z,5.60
2019-04-30T02:02:40.711Z,5.55
2019-04-30T02:05:10.755Z,5.49
2019-04-30T02:07:40.517Z,5.48
2019-04-30T02:10:10.649Z,5.49
2019-04-30T02:12:40.311Z,5.49
2019-04-30T02:15:10.376Z,5.46
2019-04-30T02:17:40.046Z,5.44
2019-04-30T02:20:10.079Z,5.40
2019-04-30T02:22:39.839Z,5.40
2019-04-30T02:25:09.979Z,5.36
2019-04-30T02:27:39.647Z,5.29
2019-04-30T02:30:11.355Z,5.25
2019-04-30T02:32:41.130Z,5.23
2019-04-30T02:35:21.913Z,5.26
2019-04-30T02:38:11.751Z,5.25
2019-04-30T02:40:42.592Z,5.27
2019-04-30T02:43:13.988Z,5.24
2019-04-30T02:45:49.603Z,5.24
2019-04-30T02:48:21.669Z,5.23
2019-04-30T02:50:53.307Z,5.19
2019-04-30T02:54:03.541Z,5.17
2019-04-30T02:56:33.187Z,5.18
2019-04-30T02:59:03.733Z,5.12
2019-04-30T03:01:33.809Z,5.11
2019-04-30T03:04:03.570Z,5.08
2019-04-30T03:06:33.220Z,5.07
2019-04-30T03:09:03.980Z,5.04
2019-04-30T03:11:33.813Z,5.02
2019-04-30T03:14:03.614Z,5.02
2019-04-30T03:16:41.025Z,5.00
2019-04-30T03:19:23.738Z,4.99
2019-04-30T03:22:03.043Z,4.99
2019-04-30T03:24:32.856Z,5.00
2019-04-30T03:27:02.591Z,4.94
2019-04-30T03:29:32.261Z,4.93
2019-04-30T03:32:03.280Z,4.95
2019-04-30T03:34:33.567Z,4.97
2019-04-30T03:37:03.359Z,4.93
2019-04-30T03:39:34.034Z,4.91
2019-04-30T03:42:04.209Z,4.89
2019-04-30T03:44:33.915Z,4.90
2019-04-30T03:47:03.624Z,4.93
2019-04-30T03:49:33.290Z,4.97
2019-04-30T03:52:03.154Z,4.98
2019-04-30T03:54:32.782Z,5.00
2019-04-30T03:57:02.451Z,5.02
2019-04-30T03:59:32.105Z,5.04
2019-04-30T04:02:12.889Z,5.04
2019-04-30T04:04:45.930Z,5.05
2019-04-30T04:07:25.265Z,5.07
2019-04-30T04:10:01.886Z,5.09
2019-04-30T04:12:31.552Z,5.16
2019-04-30T04:15:03.885Z,5.24
2019-04-30T04:17:32.830Z,5.30
2019-04-30T04:20:02.560Z,5.43
2019-04-30T04:22:32.226Z,5.85
2019-04-30T04:25:01.909Z,6.59
2019-04-30T04:27:31.897Z,7.21
2019-04-30T04:30:01.593Z,7.77
2019-04-30T04:32:31.703Z,8.21
2019-04-30T04:35:01.367Z,8.57
2019-04-30T04:37:31.031Z,8.87
2019-04-30T04:40:00.688Z,9.21
2019-04-30T04:42:33.043Z,9.54
2019-04-30T04:45:01.719Z,9.90
2019-04-30T04:47:31.429Z,10.09
2019-04-30T04:50:01.205Z,10.37
2019-04-30T04:52:31.736Z,10.68
2019-04-30T04:55:01.611Z,11.07
2019-04-30T04:57:31.279Z,11.39
2019-04-30T05:00:07.100Z,11.56
2019-04-30T05:02:54.578Z,11.67
2019-04-30T05:05:24.327Z,11.70
2019-04-30T05:07:54.014Z,11.60
2019-04-30T05:10:23.682Z,11.72
2019-04-30T05:12:53.369Z,11.73
2019-04-30T05:15:23.119Z,11.82
2019-04-30T05:17:52.790Z,12.05
2019-04-30T05:20:22.470Z,12.01
2019-04-30T05:22:52.150Z,11.98
2019-04-30T05:25:21.816Z,12.03
2019-04-30T05:27:51.497Z,12.31
2019-04-30T05:30:22.027Z,12.67
2019-04-30T05:32:51.734Z,12.91
2019-04-30T05:35:21.629Z,13.30
2019-04-30T05:37:51.335Z,14.00
2019-04-30T05:40:21.083Z,14.51
2019-04-30T05:42:50.778Z,14.82
2019-04-30T05:45:20.600Z,14.95
2019-04-30T05:47:50.650Z,14.91
2019-04-30T05:50:20.473Z,14.93
2019-04-30T05:52:50.219Z,14.85
2019-04-30T05:55:20.004Z,14.93
2019-04-30T05:57:55.964Z,15.37
2019-04-30T06:00:21.567Z,15.62
2019-04-30T06:02:51.467Z,15.83
2019-04-30T06:05:21.488Z,16.25
2019-04-30T06:07:51.949Z,16.49
2019-04-30T06:10:37.327Z,16.71
2019-04-30T06:13:12.294Z,16.93
2019-04-30T06:15:48.982Z,17.38
2019-04-30T06:18:20.414Z,17.46
2019-04-30T06:20:50.216Z,17.27
2019-04-30T06:23:20.131Z,17.26
2019-04-30T06:25:59.508Z,17.63
2019-04-30T06:28:23.547Z,17.72
2019-04-30T06:30:53.398Z,17.66
2019-04-30T06:33:23.219Z,18.05
2019-04-30T06:35:53.913Z,18.39
2019-04-30T06:38:24.663Z,18.55
2019-04-30T06:40:54.341Z,18.83
2019-04-30T06:43:24.712Z,18.96
2019-04-30T06:45:54.831Z,19.16
2019-04-30T06:48:25.261Z,19.37
2019-04-30T06:50:55.179Z,19.59
2019-04-30T06:53:24.846Z,20.07
2019-04-30T06:55:54.499Z,20.19
2019-04-30T06:58:24.198Z,20.37
2019-04-30T07:00:53.930Z,20.19
2019-04-30T07:03:23.710Z,20.16
2019-04-30T07:05:54.086Z,20.16
2019-04-30T07:08:51.948Z,20.24
2019-04-30T07:11:24.099Z,20.40
2019-04-30T07:13:54.063Z,20.44
2019-04-30T07:16:23.736Z,20.71
2019-04-30T07:18:53.558Z,20.63
2019-04-30T07:21:23.341Z,20.85
2019-04-30T07:23:53.029Z,21.02
2019-04-30T07:26:24.518Z,21.03
2019-04-30T07:28:55.231Z,20.58
2019-04-30T07:31:25.385Z,20.80
2019-04-30T07:33:55.054Z,21.66
2019-04-30T07:36:42.406Z,21.66
2019-04-30T07:38:56.921Z,22.03
2019-04-30T07:41:30.942Z,22.21
2019-04-30T07:43:59.464Z,22.51
2019-04-30T07:46:29.948Z,22.68
2019-04-30T07:49:00.174Z,23.14
2019-04-30T07:51:31.888Z,23.31
2019-04-30T07:54:01.309Z,23.44
2019-04-30T07:56:37.193Z,24.26
2019-04-30T07:59:03.100Z,24.26
2019-04-30T08:01:32.808Z,24.35
2019-04-30T08:04:21.567Z,24.71
2019-04-30T08:06:51.321Z,24.46
2019-04-30T08:09:22.210Z,24.37
2019-04-30T08:11:51.970Z,24.82
2019-04-30T08:14:24.490Z,25.14
2019-04-30T08:16:53.102Z,25.51
2019-04-30T08:22:06.941Z,25.75
2019-04-30T08:24:36.659Z,25.92
2019-04-30T08:27:06.399Z,25.90
2019-04-30T08:29:36.190Z,26.00
2019-04-30T08:32:06.005Z,25.99
2019-04-30T08:34:35.674Z,26.03
2019-04-30T08:37:16.692Z,26.00
2019-04-30T08:39:36.743Z,25.78
2019-04-30T08:42:06.481Z,25.55
2019-04-30T08:44:36.182Z,25.50
2019-04-30T08:47:05.927Z,25.81
2019-04-30T08:49:35.944Z,26.03
2019-04-30T08:52:05.861Z,26.24
2019-04-30T08:54:36.614Z,26.12
2019-04-30T08:57:06.368Z,26.31
2019-04-30T08:59:36.138Z,26.77
2019-04-30T09:02:15.237Z,26.78
2019-04-30T09:04:38.832Z,26.98
2019-04-30T09:07:10.249Z,27.10
2019-04-30T09:09:40.122Z,27.27
2019-04-30T09:12:11.428Z,27.32
2019-04-30T09:14:41.116Z,27.16
2019-04-30T09:17:10.785Z,27.42
2019-04-30T09:19:40.464Z,27.81
2019-04-30T09:22:15.026Z,27.84
2019-04-30T09:24:41.524Z,27.69
2019-04-30T09:27:11.201Z,27.46
2019-04-30T09:29:40.877Z,27.66
2019-04-30T09:32:10.565Z,27.35
2019-04-30T09:34:40.488Z,27.34
2019-04-30T09:37:10.294Z,27.47
2019-04-30T09:39:39.957Z,27.29
2019-04-30T09:42:09.645Z,27.62
2019-04-30T09:44:39.334Z,27.72
2019-04-30T09:47:09.101Z,27.82
2019-04-30T09:49:41.270Z,27.91
2019-04-30T09:52:10.642Z,27.98
2019-04-30T09:54:40.902Z,28.04
2019-04-30T09:57:11.518Z,28.03
2019-04-30T09:59:41.232Z,27.93
2019-04-30T10:02:11.651Z,27.99
2019-04-30T10:04:41.627Z,28.40
2019-04-30T10:07:11.730Z,28.53
2019-04-30T10:09:41.469Z,28.73
2019-04-30T10:12:13.995Z,28.44
2019-04-30T10:14:43.916Z,28.19
2019-04-30T10:17:32.625Z,28.15
2019-04-30T10:20:02.513Z,28.39
2019-04-30T10:22:32.188Z,28.40
2019-04-30T10:25:01.869Z,28.38
2019-04-30T10:27:31.773Z,28.03
2019-04-30T10:30:01.705Z,28.15
2019-04-30T10:32:32.435Z,27.71
2019-04-30T10:35:02.311Z,28.19
2019-04-30T10:37:32.368Z,28.26
2019-04-30T10:40:02.235Z,28.48
2019-04-30T10:42:34.738Z,29.05
2019-04-30T10:45:06.834Z,29.30
2019-04-30T10:47:36.518Z,29.20
2019-04-30T10:50:09.943Z,29.14
2019-04-30T10:52:39.496Z,28.92
2019-04-30T11:27:27.311Z,27.92
2019-04-30T11:30:03.530Z,28.01
2019-04-30T11:32:29.612Z,27.96
2019-04-30T11:34:59.516Z,27.64
2019-04-30T11:37:29.293Z,27.59
2019-04-30T11:39:59.103Z,27.86
2019-04-30T11:42:28.775Z,27.87
2019-04-30T11:44:58.712Z,28.06
2019-04-30T11:47:32.583Z,28.14
2019-04-30T11:50:02.970Z,28.31
2019-04-30T11:52:32.890Z,28.38
2019-04-30T11:55:03.237Z,28.09
2019-04-30T11:57:33.319Z,27.94
2019-04-30T12:00:03.791Z,28.12
2019-04-30T12:02:43.772Z,27.90
2019-04-30T12:05:15.915Z,27.69
2019-04-30T12:08:10.780Z,28.04
2019-04-30T12:10:48.306Z,28.33
2019-04-30T12:13:27.912Z,28.35
2019-04-30T12:15:58.922Z,27.88
2019-04-30T12:18:29.421Z,27.17
2019-04-30T12:20:59.376Z,27.34
2019-04-30T12:23:29.219Z,27.58
2019-04-30T12:26:02.347Z,27.47
2019-04-30T12:28:30.462Z,27.53
2019-04-30T12:31:00.273Z,27.51
2019-04-30T12:33:30.281Z,27.58
2019-04-30T12:36:09.042Z,27.66
2019-04-30T12:38:37.660Z,27.83
2019-04-30T12:41:07.743Z,28.08
2019-04-30T12:43:37.639Z,27.93
2019-04-30T12:46:07.415Z,27.41
2019-04-30T12:48:59.451Z,26.66
2019-04-30T12:51:45.283Z,26.39
2019-04-30T12:54:17.907Z,25.80
2019-04-30T12:57:04.376Z,25.29
2019-04-30T12:59:34.204Z,24.63
2019-04-30T13:02:05.954Z,23.93
2019-04-30T13:04:35.635Z,23.44
2019-04-30T13:07:06.306Z,23.16
2019-04-30T13:09:36.543Z,22.94
2019-04-30T13:12:09.829Z,22.70
2019-04-30T13:14:50.815Z,22.67
2019-04-30T13:17:10.178Z,22.60
2019-04-30T13:19:39.909Z,22.57
2019-04-30T13:22:11.335Z,22.61
2019-04-30T13:24:41.318Z,22.51
2019-04-30T13:27:11.113Z,22.53
2019-04-30T13:29:58.493Z,22.56
2019-04-30T13:32:32.891Z,22.44
2019-04-30T13:35:02.893Z,22.26
2019-04-30T13:37:39.577Z,22.09
2019-04-30T13:40:23.758Z,21.96
2019-04-30T13:42:53.838Z,22.08
2019-04-30T13:45:23.602Z,22.17
2019-04-30T13:47:53.284Z,22.25
2019-04-30T13:50:24.250Z,22.31
2019-04-30T13:52:53.945Z,22.33
2019-04-30T13:55:23.647Z,22.36
2019-04-30T13:57:53.297Z,22.21
2019-04-30T14:00:26.421Z,22.13
2019-04-30T14:03:06.521Z,22.17
2019-04-30T14:05:36.202Z,22.06
2019-04-30T14:08:31.911Z,21.99
2019-04-30T14:11:01.653Z,21.89
2019-04-30T14:13:31.336Z,22.03
2019-04-30T14:16:01.120Z,22.06
2019-04-30T14:18:33.921Z,22.00
2019-04-30T14:21:02.446Z,21.92
2019-04-30T14:23:32.228Z,21.87
2019-04-30T14:26:02.490Z,21.87
2019-04-30T14:28:32.553Z,21.92
2019-04-30T14:31:02.378Z,21.94
2019-04-30T14:33:32.846Z,22.05
2019-04-30T14:36:02.854Z,22.11
2019-04-30T14:38:32.735Z,22.08
2019-04-30T14:41:03.461Z,22.04
2019-04-30T14:43:42.294Z,22.10
2019-04-30T14:46:31.018Z,22.18
2019-04-30T14:49:29.515Z,22.21
2019-04-30T14:52:00.023Z,22.17
2019-04-30T14:54:44.452Z,22.08
2019-04-30T14:57:33.519Z,22.07
2019-04-30T15:00:22.251Z,22.05
2019-04-30T15:02:58.700Z,21.94
2019-04-30T15:05:38.594Z,21.92
2019-04-30T15:08:00.918Z,22.00
2019-04-30T15:10:30.640Z,22.07
2019-04-30T15:13:02.590Z,22.11
2019-04-30T15:15:32.291Z,22.12
2019-04-30T15:18:01.978Z,22.08
2019-04-30T15:20:31.645Z,22.08
2019-04-30T15:23:21.265Z,22.16
2019-04-30T15:25:48.989Z,22.00
2019-04-30T15:28:19.095Z,21.73
2019-04-30T15:30:48.969Z,21.64
2019-04-30T15:33:42.180Z,21.68
2019-04-30T15:36:12.143Z,21.63
2019-04-30T15:39:05.224Z,21.51
2019-04-30T15:41:36.343Z,21.42
2019-04-30T15:44:06.593Z,21.37
2019-04-30T15:46:36.504Z,21.46
2019-04-30T15:49:06.521Z,21.41
2019-04-30T15:51:37.347Z,21.31
2019-04-30T15:54:07.513Z,21.23
2019-04-30T15:56:40.358Z,21.17
2019-04-30T15:59:31.940Z,21.10
2019-04-30T16:02:05.965Z,21.04
2019-04-30T16:04:53.156Z,21.03
2019-04-30T16:07:22.847Z,21.01
2019-04-30T16:10:14.627Z,21.00
2019-04-30T16:12:51.591Z,20.95
2019-04-30T16:15:21.465Z,20.84
2019-04-30T16:17:54.115Z,20.85
2019-04-30T16:20:23.809Z,20.83
2019-04-30T16:22:53.622Z,20.76
2019-04-30T16:25:23.378Z,20.70
2019-04-30T16:27:53.363Z,20.47
2019-04-30T16:30:23.326Z,20.47
2019-04-30T16:32:53.112Z,20.45
2019-04-30T16:35:22.818Z,20.41
2019-04-30T16:37:52.840Z,20.41
2019-04-30T16:40:22.549Z,20.40
2019-04-30T16:42:52.313Z,20.35
2019-04-30T16:45:23.064Z,20.27
2019-04-30T16:47:52.807Z,20.27
2019-04-30T16:50:22.620Z,20.26
2019-04-30T16:52:52.328Z,20.25
2019-04-30T16:55:23.009Z,20.25
2019-04-30T16:57:52.730Z,20.22
2019-04-30T17:00:23.421Z,20.18
2019-04-30T17:02:58.511Z,20.13
2019-04-30T17:05:39.583Z,20.08
2019-04-30T17:08:14.820Z,19.98
2019-04-30T17:11:06.023Z,19.90
2019-04-30T17:13:41.000Z,19.83
2019-04-30T17:16:13.949Z,19.82
2019-04-30T17:18:43.701Z,19.79
2019-04-30T17:21:13.447Z,19.70
2019-04-30T17:23:43.207Z,19.47
2019-04-30T17:26:12.967Z,19.47
2019-04-30T17:28:42.681Z,19.46
2019-04-30T17:31:13.564Z,19.35
2019-04-30T17:33:43.370Z,19.23
2019-04-30T17:36:13.401Z,19.14
2019-04-30T17:38:43.075Z,19.06
2019-04-30T17:41:12.771Z,18.95
2019-04-30T17:43:42.467Z,18.85
2019-04-30T17:46:12.594Z,18.74
2019-04-30T17:48:42.334Z,18.64
2019-04-30T17:51:12.073Z,18.54
2019-04-30T17:53:59.512Z,18.45
2019-04-30T17:56:29.211Z,18.37
2019-04-30T17:58:58.886Z,18.33
2019-04-30T18:01:28.851Z,18.26
2019-04-30T18:03:59.714Z,18.19
2019-04-30T18:06:29.445Z,18.13
2019-04-30T18:08:59.127Z,18.06
2019-04-30T18:11:29.596Z,17.99
2019-04-30T18:13:59.383Z,17.92
2019-04-30T18:16:29.085Z,17.81
2019-04-30T18:19:18.683Z,17.73
2019-04-30T18:21:55.388Z,17.63
2019-04-30T18:24:52.164Z,17.51
2019-04-30T18:27:24.931Z,17.41
2019-04-30T18:29:54.642Z,17.26
2019-04-30T18:32:26.205Z,17.18
2019-04-30T18:34:56.018Z,17.08
2019-04-30T18:37:25.703Z,16.99
2019-04-30T18:39:59.972Z,16.92
2019-04-30T18:42:29.073Z,16.84
2019-04-30T18:44:59.129Z,16.78
2019-04-30T18:47:28.837Z,16.69
2019-04-30T18:49:59.436Z,16.62
2019-04-30T18:52:29.297Z,16.55
2019-04-30T18:54:59.528Z,16.49
2019-04-30T18:57:29.269Z,16.42
2019-04-30T18:59:59.141Z,16.39
2019-04-30T19:02:30.946Z,16.35
2019-04-30T19:05:01.601Z,16.34
2019-04-30T19:07:36.814Z,16.34
2019-04-30T19:10:38.143Z,16.36
2019-04-30T19:13:18.914Z,16.41
2019-04-30T19:16:19.676Z,16.51
2019-04-30T19:18:47.246Z,16.62
2019-04-30T19:21:16.942Z,16.72
2019-04-30T19:23:48.615Z,16.79
2019-04-30T19:26:19.006Z,16.83
2019-04-30T19:28:49.542Z,16.88
2019-04-30T19:31:19.967Z,16.87
2019-04-30T19:33:49.936Z,16.89
2019-04-30T19:36:21.008Z,16.90
2019-04-30T19:38:51.163Z,16.93
2019-04-30T19:41:20.852Z,16.95
2019-04-30T19:43:50.541Z,16.97
2019-04-30T19:46:20.366Z,16.97
2019-04-30T19:48:50.730Z,16.98
2019-04-30T19:51:20.551Z,16.98
2019-04-30T19:53:50.320Z,17.02
2019-04-30T19:56:20.562Z,17.02
2019-04-30T19:59:01.539Z,17.00
2019-04-30T20:01:21.831Z,16.98
2019-04-30T20:03:51.639Z,16.87
2019-04-30T20:06:21.356Z,16.73
2019-04-30T20:08:51.170Z,16.64
2019-04-30T20:11:20.859Z,16.56
2019-04-30T20:13:50.558Z,16.50
2019-04-30T20:16:20.291Z,16.44
2019-04-30T20:18:50.038Z,16.36
2019-04-30T20:21:28.343Z,16.25
2019-04-30T20:23:52.935Z,16.14
2019-04-30T20:26:22.706Z,16.06
2019-04-30T20:28:52.482Z,16.05
2019-04-30T20:31:22.209Z,16.00
2019-04-30T20:33:53.657Z,15.97
2019-04-30T20:36:23.535Z,15.97
2019-04-30T20:39:18.194Z,15.94
2019-04-30T20:41:51.037Z,15.84
2019-04-30T20:44:20.886Z,15.77
2019-04-30T20:46:50.659Z,15.77
2019-04-30T20:49:20.448Z,15.77
2019-04-30T20:51:55.598Z,15.76
2019-04-30T20:54:22.507Z,15.77
2019-04-30T20:56:52.247Z,15.77
2019-04-30T20:59:22.042Z,15.76
2019-04-30T21:01:51.902Z,15.75
2019-04-30T21:04:21.693Z,15.69
2019-04-30T21:06:51.398Z,15.69
2019-04-30T21:09:21.074Z,15.67
2019-04-30T21:11:50.764Z,15.67
2019-04-30T21:14:20.537Z,15.62
2019-04-30T21:16:50.281Z,15.54
2019-04-30T21:19:19.982Z,15.52
2019-04-30T21:21:49.833Z,15.55
2019-04-30T21:24:19.695Z,15.55
2019-04-30T21:26:49.435Z,15.51
2019-04-30T21:29:19.468Z,15.52
2019-04-30T21:32:08.205Z,15.50
2019-04-30T21:34:42.183Z,15.52
2019-04-30T21:37:11.984Z,15.53
2019-04-30T21:39:41.734Z,15.49
2019-04-30T21:42:11.417Z,15.44
2019-04-30T21:44:41.153Z,15.40
2019-04-30T21:47:10.827Z,15.39
2019-04-30T21:49:41.628Z,15.36
2019-04-30T21:52:11.842Z,15.31
2019-04-30T21:54:43.142Z,15.26
2019-04-30T21:57:12.936Z,15.26
2019-04-30T21:59:42.669Z,15.21
2019-04-30T22:02:12.362Z,15.16
2019-04-30T22:04:42.261Z,15.15
2019-04-30T22:07:12.070Z,15.13
2019-04-30T22:09:42.965Z,15.13
2019-04-30T22:12:19.142Z,15.09
2019-04-30T22:14:49.138Z,15.05
2019-04-30T22:17:19.365Z,15.02
2019-04-30T22:19:51.678Z,15.02
2019-04-30T22:22:21.512Z,14.96
2019-04-30T22:24:51.260Z,14.90
2019-04-30T22:27:21.612Z,14.86
2019-04-30T22:29:51.455Z,14.83
2019-04-30T22:32:30.655Z,14.84
2019-04-30T22:35:19.623Z,14.77
2019-04-30T22:37:53.582Z,14.70
2019-04-30T22:40:23.342Z,14.65
2019-04-30T22:42:53.024Z,14.64
2019-04-30T22:45:30.478Z,14.63
2019-04-30T22:48:00.157Z,14.58
2019-04-30T22:50:29.972Z,14.56
2019-04-30T22:52:59.845Z,14.49
2019-04-30T22:55:29.541Z,14.42
2019-04-30T22:57:59.219Z,14.37
2019-04-30T23:00:39.206Z,14.33
2019-04-30T23:03:11.670Z,14.30
2019-04-30T23:05:41.722Z,14.30
2019-04-30T23:08:11.493Z,14.27
2019-04-30T23:10:41.151Z,14.23
2019-04-30T23:13:10.950Z,14.17
2019-04-30T23:15:40.738Z,14.13
2019-04-30T23:18:10.491Z,14.15
2019-04-30T23:20:40.206Z,14.14
2019-04-30T23:23:09.900Z,14.07
2019-04-30T23:25:39.583Z,14.05
2019-04-30T23:28:09.288Z,14.03
2019-04-30T23:30:39.103Z,14.01
2019-04-30T23:33:08.797Z,14.05
2019-04-30T23:35:38.616Z,14.06
2019-04-30T23:38:08.362Z,13.93
2019-04-30T23:40:48.301Z,13.75
2019-04-30T23:43:18.277Z,13.60
2019-04-30T23:45:48.314Z,13.50
2019-04-30T23:48:18.068Z,13.41
2019-04-30T23:50:47.856Z,13.29
2019-04-30T23:53:17.535Z,13.18
2019-04-30T23:55:47.277Z,13.13
2019-04-30T23:58:17.018Z,13.14
